Have a Safe July 4th! 

Flight Track Log - Related Links

Times and Time Zones

All times are in EDT time to prevent confusion due to time zone crossing. See the LXJ342 flight status page for this flight to view local times or setup timezone preferences in your user account.

Time Position Orientation Groundspeed Altitude Reporting Facility
EDT Latitude Longitude Course Direction KTS MPH feet Rate Location/Type
Fri 12:57:10 PM 42.2058 -83.3556 227° Southwest 169 194 1,300  Level Cleveland Center
Fri 12:57:59 PM 42.1756 -83.3992 227° Southwest 210 242 4,300 3,422 Climbing Cleveland Center
Fri 12:59:18 PM 42.1711 -83.4969 267° West 246 283 8,600 3,065 Climbing Cleveland Center
Fri 01:00:18 PM 42.2386 -83.5394 335° Northwest 246 283 11,400 2,650 Climbing Cleveland Center
Fri 01:01:18 PM 42.3269 -83.5153 11° North 285 328 13,900 2,650 Climbing Cleveland Center
Fri 01:02:18 PM 42.4231 -83.5031 North 331 381 16,700 2,600 Climbing Cleveland Center
Fri 01:03:18 PM 42.5094 -83.5492 339° North 337 388 19,100 2,450 Climbing Cleveland Center
Fri 01:04:18 PM 42.5958 -83.6011 336° Northwest 342 394 21,600 1,950 Climbing Cleveland Center
Fri 01:05:18 PM 42.6750 -83.6728 326° Northwest 342 394 23,000 1,550 Climbing Cleveland Center
Fri 01:06:18 PM 42.7217 -83.7967 297° West 342 394 24,700 1,500 Climbing Cleveland Center
Fri 01:07:18 PM 42.7703 -83.9236 298° West 362 417 26,000 650 Climbing Cleveland Center
Fri 01:08:18 PM 42.8183 -84.0564 296° West 376 433 26,000  Level Cleveland Center
Fri 01:09:18 PM 42.8706 -84.1953 297° West 400 460 26,000  Level Cleveland Center
Fri 01:10:18 PM 42.9206 -84.3258 298° West 400 460 26,000  Level Cleveland Center
Fri 01:11:04 PM 42.9656 -84.4394 298° West 399 459 26,000  Level Chicago Center
Fri 01:12:06 PM 43.0158 -84.5753 297° West 403 464 26,000  Level Chicago Center
Fri 01:13:09 PM 43.0556 -84.7167 291° West 400 460 26,000  Level Chicago Center
Fri 01:14:11 PM 43.0906 -84.8600 289° West 399 459 26,000  Level Chicago Center
Fri 01:15:13 PM 43.1256 -85.0042 288° West 401 461 26,000  Level Chicago Center
Fri 01:16:15 PM 43.1678 -85.1800 288° West 406 467 26,000  Level Chicago Center
Fri 01:17:17 PM 43.2022 -85.3250 288° West 404 465 26,000 -48 Level Chicago Center
Fri 01:18:19 PM 43.2367 -85.4711 288° West 405 466 25,900 -532 Descending Chicago Center
Fri 01:19:21 PM 43.2722 -85.6189 288° West 410 472 24,900 -919 Descending Chicago Center
Fri 01:20:23 PM 43.3067 -85.7653 288° West 410 472 24,000 -435 Descending Chicago Center
Fri 01:21:25 PM 43.3461 -85.9372 288° West 400 460 24,000  Level Chicago Center
Fri 01:22:27 PM 43.3803 -86.0819 288° West 402 463 24,000  Level Chicago Center
Fri 01:23:29 PM 43.4169 -86.2375 288° West 424 488 24,000 -432 Level Chicago Center
Fri 01:24:32 PM 43.4531 -86.3964 287° West 436 502 23,100 -1,344 Descending Chicago Center
Fri 01:25:34 PM 43.4878 -86.5583 287° West 436 502 21,200 -1,935 Descending Chicago Center
Fri 01:26:36 PM 43.5272 -86.7331 287° West 414 476 19,100 -1,935 Descending Chicago Center
Fri 01:27:38 PM 43.5600 -86.8772 287° West 399 459 17,200 -1,790 Descending Chicago Center
Fri 01:28:40 PM 43.5911 -87.0156 287° West 384 442 15,400 -1,597 Descending Chicago Center
Fri 01:29:42 PM 43.6208 -87.1525 287° West 376 433 13,900 -2,032 Descending Chicago Center
Fri 01:30:44 PM 43.6467 -87.2733 286° West 336 387 11,200 -2,613 Descending Chicago Center
Fri 01:31:46 PM 43.6719 -87.3883 287° West 268 308 8,500 -2,758 Descending Chicago Center
Fri 01:32:48 PM 43.6928 -87.4833 287° West 259 298 5,500 -2,710 Descending Chicago Center
Fri 01:33:50 PM 43.7139 -87.5758 288° West 255 293 2,900 -1,403 Descending Chicago Center
Fri 01:34:52 PM 43.7306 -87.6533 287° West 223 257 2,600 -144 Descending Chicago Center
Fri 01:35:55 PM 43.7578 -87.7319 296° West 202 232 2,600 -144 Level Chicago Center
Fri 01:36:57 PM 43.7964 -87.7814 317° Northwest 195 224 2,300 -532 Descending Chicago Center
Fri 01:37:59 PM 43.8019 -87.8203 281° West 168 193 1,500 -774 Descending Chicago Center

Login

Don't have an account? Register now (free) for customized features, flight alerts, and more!